Time;durP1;ratioP1;P1;durP2;ratioP2;P2;SDS_P1;SDS_P2;PMS_P1;PMS_P2;Temp;Humidity;BMP_temperature;BMP_pressure;BME280_temperature;BME280_humidity;BME280_pressure;Samples;Min_cycle;Max_cycle;Signal;HPM_P1;HPM_P2
2022/06/30 00:00:06;;;;;;;2.30;2.10;;;;;;;;;;5094196;28;20498;-82
2022/06/30 00:02:31;;;;;;;3.03;2.03;;;;;;;;;;5094280;28;20471;-82
2022/06/30 00:04:56;;;;;;;4.65;2.10;;;;;;;;;;5093245;28;20103;-83
2022/06/30 00:07:22;;;;;;;2.10;1.90;;;;;;;;;;5093044;28;20050;-83
2022/06/30 00:09:48;;;;;;;2.30;2.10;;;;;;;;;;5093599;28;20089;-83
2022/06/30 00:12:13;;;;;;;2.45;2.20;;;;;;;;;;5094278;28;20498;-84
2022/06/30 00:14:40;;;;;;;3.17;2.33;;;;;;;;;;5092987;28;20115;-84
2022/06/30 00:17:05;;;;;;;2.50;2.00;;;;;;;;;;5093870;28;20027;-83
2022/06/30 00:19:32;;;;;;;3.50;2.38;;;;;;;;;;5093132;28;20344;-84
2022/06/30 00:21:57;;;;;;;2.80;2.30;;;;;;;;;;5093579;28;20032;-83
2022/06/30 00:24:23;;;;;;;3.45;2.13;;;;;;;;;;5094202;28;20403;-83
2022/06/30 00:26:49;;;;;;;2.70;2.25;;;;;;;;;;5089544;28;20031;-84
2022/06/30 00:29:14;;;;;;;3.25;2.13;;;;;;;;;;5091180;28;20036;-83
2022/06/30 00:31:40;;;;;;;2.60;2.30;;;;;;;;;;5090735;28;20032;-83
2022/06/30 00:34:05;;;;;;;2.78;2.22;;;;;;;;;;5093177;28;20020;-83
2022/06/30 00:36:31;;;;;;;2.80;2.30;;;;;;;;;;5093619;28;20388;-83
2022/06/30 00:38:56;;;;;;;2.85;2.10;;;;;;;;;;5092791;28;20069;-84
2022/06/30 00:41:22;;;;;;;3.25;2.17;;;;;;;;;;5092141;28;20027;-84
2022/06/30 00:43:48;;;;;;;3.63;2.17;;;;;;;;;;5092590;28;20065;-83
2022/06/30 00:46:15;;;;;;;3.33;2.22;;;;;;;;;;5092607;28;20024;-86
2022/06/30 00:48:42;;;;;;;7.20;2.50;;;;;;;;;;5090325;28;20039;-87
2022/06/30 00:51:08;;;;;;;6.63;2.55;;;;;;;;;;5090262;28;20044;-87
2022/06/30 00:53:36;;;;;;;2.85;2.22;;;;;;;;;;5092796;28;20451;-86
2022/06/30 00:56:06;;;;;;;3.65;2.65;;;;;;;;;;5092138;28;20422;-85
2022/06/30 00:58:37;;;;;;;3.58;2.60;;;;;;;;;;5090616;28;20027;-86
2022/06/30 01:01:04;;;;;;;3.58;2.40;;;;;;;;;;5092453;28;20085;-85
2022/06/30 01:03:32;;;;;;;3.17;2.40;;;;;;;;;;5092257;28;20540;-86
2022/06/30 01:06:02;;;;;;;2.95;2.30;;;;;;;;;;5092658;28;20523;-86
2022/06/30 01:08:30;;;;;;;2.92;2.40;;;;;;;;;;5091984;28;20098;-85
2022/06/30 01:13:41;;;;;;;5.10;2.28;;;;;;;;;;5093529;28;20119;-85
2022/06/30 01:16:07;;;;;;;4.28;2.70;;;;;;;;;;5093679;28;20443;-87
2022/06/30 01:18:34;;;;;;;4.22;2.67;;;;;;;;;;5092397;28;20042;-86
2022/06/30 01:21:00;;;;;;;3.95;2.42;;;;;;;;;;5093517;28;20030;-87
2022/06/30 01:23:25;;;;;;;2.70;2.50;;;;;;;;;;5091991;28;20830;-85
2022/06/30 01:25:51;;;;;;;3.13;2.17;;;;;;;;;;5093045;28;20111;-86
2022/06/30 01:28:18;;;;;;;2.50;2.25;;;;;;;;;;5091532;28;20110;-87
2022/06/30 01:30:43;;;;;;;3.05;2.00;;;;;;;;;;5092875;28;20046;-87
2022/06/30 01:33:09;;;;;;;3.90;2.33;;;;;;;;;;5093546;28;20468;-86
2022/06/30 01:35:35;;;;;;;3.05;2.30;;;;;;;;;;5092926;28;20197;-86
2022/06/30 01:38:00;;;;;;;4.60;2.53;;;;;;;;;;5092919;28;20515;-86
2022/06/30 01:40:29;;;;;;;3.33;2.17;;;;;;;;;;5091520;28;20095;-86
2022/06/30 01:42:54;;;;;;;3.55;1.90;;;;;;;;;;5092602;28;20039;-84
2022/06/30 01:45:21;;;;;;;4.00;2.33;;;;;;;;;;5091226;28;20468;-85
2022/06/30 01:47:46;;;;;;;3.20;2.03;;;;;;;;;;5089932;28;20028;-85
2022/06/30 01:50:16;;;;;;;2.55;2.13;;;;;;;;;;5092383;28;20501;-85
2022/06/30 01:52:42;;;;;;;2.50;2.00;;;;;;;;;;5092347;28;20071;-84
2022/06/30 01:55:08;;;;;;;5.47;2.10;;;;;;;;;;5092374;28;20028;-85
2022/06/30 01:57:35;;;;;;;2.42;2.08;;;;;;;;;;5089353;28;20044;-86
2022/06/30 02:00:01;;;;;;;2.50;2.15;;;;;;;;;;5091742;28;20117;-85
2022/06/30 02:02:27;;;;;;;2.90;1.85;;;;;;;;;;5091033;28;20027;-85
2022/06/30 02:04:53;;;;;;;2.10;1.80;;;;;;;;;;5092686;28;20093;-87
2022/06/30 02:07:19;;;;;;;2.15;1.90;;;;;;;;;;5092398;28;20062;-84
2022/06/30 02:09:46;;;;;;;1.70;1.60;;;;;;;;;;5092292;28;20032;-85
2022/06/30 02:14:57;;;;;;;2.40;1.55;;;;;;;;;;5090499;28;20073;-85
2022/06/30 02:17:22;;;;;;;3.35;2.00;;;;;;;;;;5090633;28;20081;-86
2022/06/30 02:19:48;;;;;;;2.10;1.60;;;;;;;;;;5092390;28;20392;-85
2022/06/30 02:22:14;;;;;;;3.10;1.80;;;;;;;;;;5091147;28;20031;-85
2022/06/30 02:24:40;;;;;;;2.05;1.70;;;;;;;;;;5091926;28;20085;-86
2022/06/30 02:27:05;;;;;;;3.92;1.80;;;;;;;;;;5092025;28;20016;-84
2022/06/30 02:29:31;;;;;;;2.60;1.83;;;;;;;;;;5091789;28;20047;-84
2022/06/30 02:31:56;;;;;;;3.05;1.73;;;;;;;;;;5091636;28;20102;-86
2022/06/30 02:34:22;;;;;;;2.28;1.88;;;;;;;;;;5092057;28;20102;-85
2022/06/30 02:36:47;;;;;;;1.80;1.60;;;;;;;;;;5092123;28;20028;-85
2022/06/30 02:39:13;;;;;;;2.25;1.88;;;;;;;;;;5091474;28;20027;-85
2022/06/30 02:41:39;;;;;;;2.83;1.65;;;;;;;;;;5090623;28;20019;-85
2022/06/30 02:44:04;;;;;;;2.30;2.08;;;;;;;;;;5089582;28;20035;-85
2022/06/30 02:46:33;;;;;;;3.90;2.10;;;;;;;;;;5087683;28;20027;-84
2022/06/30 02:48:58;;;;;;;4.00;1.80;;;;;;;;;;5091399;28;20046;-84
2022/06/30 02:51:23;;;;;;;3.42;2.03;;;;;;;;;;5089964;28;20105;-84
2022/06/30 02:53:49;;;;;;;4.65;2.20;;;;;;;;;;5091481;28;20137;-85
2022/06/30 02:56:14;;;;;;;3.08;2.28;;;;;;;;;;5090597;28;20023;-86
2022/06/30 02:58:40;;;;;;;3.00;1.90;;;;;;;;;;5091107;28;20077;-86
2022/06/30 03:01:05;;;;;;;3.67;2.22;;;;;;;;;;5091794;28;20471;-87
2022/06/30 03:03:31;;;;;;;2.83;2.15;;;;;;;;;;5091581;28;20059;-86
2022/06/30 03:05:56;;;;;;;3.13;2.38;;;;;;;;;;5089116;28;20033;-85
2022/06/30 03:08:22;;;;;;;2.97;1.90;;;;;;;;;;5091082;28;20031;-86
2022/06/30 03:10:47;;;;;;;2.72;2.13;;;;;;;;;;5088730;28;20066;-86
2022/06/30 03:13:12;;;;;;;3.83;2.35;;;;;;;;;;5092320;28;20494;-85
2022/06/30 03:15:38;;;;;;;2.78;2.25;;;;;;;;;;5091602;28;20419;-86
2022/06/30 03:18:03;;;;;;;2.80;2.30;;;;;;;;;;5093157;28;20418;-84
2022/06/30 03:20:29;;;;;;;5.78;2.25;;;;;;;;;;5094610;28;20157;-85
2022/06/30 03:22:54;;;;;;;3.20;2.25;;;;;;;;;;5094162;28;20067;-86
2022/06/30 03:25:20;;;;;;;2.92;2.35;;;;;;;;;;5091085;28;20131;-85
2022/06/30 03:27:45;;;;;;;3.38;2.03;;;;;;;;;;5095619;28;20054;-87
2022/06/30 03:30:11;;;;;;;3.17;2.15;;;;;;;;;;5095494;28;20076;-87
2022/06/30 03:32:37;;;;;;;3.35;1.98;;;;;;;;;;5092014;28;20111;-86
2022/06/30 03:35:04;;;;;;;2.85;2.00;;;;;;;;;;5094099;28;20012;-85
2022/06/30 03:37:30;;;;;;;3.38;2.00;;;;;;;;;;5092732;28;20020;-84
2022/06/30 03:39:55;;;;;;;6.18;2.17;;;;;;;;;;5093736;28;20464;-84
2022/06/30 03:42:21;;;;;;;2.10;1.90;;;;;;;;;;5093891;28;20023;-85
2022/06/30 03:44:46;;;;;;;3.42;1.98;;;;;;;;;;5094006;28;20059;-87
2022/06/30 03:47:12;;;;;;;2.03;1.80;;;;;;;;;;5092179;28;20486;-87
2022/06/30 03:49:37;;;;;;;4.18;2.15;;;;;;;;;;5091958;28;20024;-86
2022/06/30 03:52:03;;;;;;;2.38;1.80;;;;;;;;;;5094578;28;20039;-86
2022/06/30 03:54:28;;;;;;;2.03;1.77;;;;;;;;;;5094760;28;20020;-87
2022/06/30 03:56:54;;;;;;;3.20;1.80;;;;;;;;;;5093921;28;20028;-86
2022/06/30 03:59:19;;;;;;;2.10;1.70;;;;;;;;;;5094921;28;20039;-86
2022/06/30 04:01:45;;;;;;;3.40;1.83;;;;;;;;;;5093831;28;20434;-85
2022/06/30 04:04:10;;;;;;;3.08;1.92;;;;;;;;;;5094592;28;20016;-86
2022/06/30 04:06:36;;;;;;;4.30;2.10;;;;;;;;;;5094620;28;20055;-85
2022/06/30 04:09:02;;;;;;;3.67;2.30;;;;;;;;;;5094627;28;20024;-85
2022/06/30 04:11:27;;;;;;;4.97;2.33;;;;;;;;;;5090649;28;20055;-86
2022/06/30 04:13:53;;;;;;;2.90;2.30;;;;;;;;;;5093792;28;20039;-87
2022/06/30 04:16:18;;;;;;;4.43;2.40;;;;;;;;;;5093169;28;20023;-84
2022/06/30 04:18:43;;;;;;;3.88;2.50;;;;;;;;;;5094180;28;20035;-85
2022/06/30 04:21:09;;;;;;;4.55;2.83;;;;;;;;;;5094716;28;20027;-85
2022/06/30 04:23:35;;;;;;;2.97;2.47;;;;;;;;;;5092756;28;20028;-87
2022/06/30 04:26:01;;;;;;;2.30;2.10;;;;;;;;;;5093608;28;20031;-89
2022/06/30 04:28:26;;;;;;;4.38;2.45;;;;;;;;;;5093510;28;20106;-91
2022/06/30 04:33:36;;;;;;;3.90;2.58;;;;;;;;;;5093309;28;20035;-89
2022/06/30 04:36:01;;;;;;;3.38;2.50;;;;;;;;;;5091787;28;20023;-90
2022/06/30 04:38:26;;;;;;;6.47;3.30;;;;;;;;;;5095206;28;20031;-89
2022/06/30 04:43:36;;;;;;;4.25;3.28;;;;;;;;;;5089123;28;20142;-90
2022/06/30 04:46:01;;;;;;;4.35;3.13;;;;;;;;;;5093003;28;20085;-92
2022/06/30 04:48:27;;;;;;;3.50;3.05;;;;;;;;;;5093407;28;20032;-91
2022/06/30 04:50:55;;;;;;;4.78;3.13;;;;;;;;;;5092261;28;20391;-90
2022/06/30 04:53:21;;;;;;;3.03;2.65;;;;;;;;;;5094129;28;20047;-88
2022/06/30 04:55:46;;;;;;;4.53;3.53;;;;;;;;;;5093407;28;20028;-88
2022/06/30 04:58:12;;;;;;;3.67;3.35;;;;;;;;;;5094361;28;20026;-88
2022/06/30 05:00:37;;;;;;;3.50;2.90;;;;;;;;;;5092896;28;20020;-89
2022/06/30 05:03:02;;;;;;;3.80;3.17;;;;;;;;;;5091591;28;20020;-91
2022/06/30 05:05:28;;;;;;;3.45;3.15;;;;;;;;;;5093079;28;20444;-89
2022/06/30 05:07:53;;;;;;;5.00;3.85;;;;;;;;;;5090292;28;20429;-87
2022/06/30 05:10:19;;;;;;;3.83;3.38;;;;;;;;;;5093793;28;20032;-87
2022/06/30 05:12:44;;;;;;;4.68;4.15;;;;;;;;;;5090888;28;20038;-85
2022/06/30 05:15:10;;;;;;;7.60;3.83;;;;;;;;;;5090665;28;20024;-88
2022/06/30 05:17:35;;;;;;;5.00;4.07;;;;;;;;;;5091622;28;20024;-88
2022/06/30 05:20:02;;;;;;;4.75;4.00;;;;;;;;;;5092019;28;20028;-86
2022/06/30 05:22:28;;;;;;;5.68;3.92;;;;;;;;;;5091738;28;20016;-87
2022/06/30 05:27:38;;;;;;;5.32;4.28;;;;;;;;;;5091152;28;20403;-86
2022/06/30 05:30:04;;;;;;;4.82;3.92;;;;;;;;;;5093630;28;20040;-89
2022/06/30 05:32:29;;;;;;;5.88;4.47;;;;;;;;;;5089937;28;20467;-90
2022/06/30 05:34:55;;;;;;;5.38;4.28;;;;;;;;;;5092301;28;20031;-87
2022/06/30 05:37:20;;;;;;;5.97;4.10;;;;;;;;;;5089700;28;20055;-86
2022/06/30 05:39:45;;;;;;;6.15;4.10;;;;;;;;;;5089671;28;20487;-84
2022/06/30 05:42:11;;;;;;;6.45;5.05;;;;;;;;;;5087144;28;20028;-86
2022/06/30 05:44:36;;;;;;;7.32;4.50;;;;;;;;;;5092008;28;20491;-86
2022/06/30 05:47:02;;;;;;;6.07;4.95;;;;;;;;;;5092957;28;20028;-84
2022/06/30 05:49:27;;;;;;;5.25;4.55;;;;;;;;;;5090629;28;20038;-86
2022/06/30 05:51:53;;;;;;;6.40;4.50;;;;;;;;;;5092712;28;20066;-85
2022/06/30 05:54:19;;;;;;;6.53;4.20;;;;;;;;;;5093629;28;20040;-86
2022/06/30 05:56:45;;;;;;;6.22;3.78;;;;;;;;;;5091262;28;20032;-86
2022/06/30 05:59:10;;;;;;;7.22;4.80;;;;;;;;;;5091404;28;20043;-85
2022/06/30 06:01:36;;;;;;;9.48;5.90;;;;;;;;;;5091207;28;20085;-86
2022/06/30 06:04:01;;;;;;;7.75;4.30;;;;;;;;;;5090877;28;20159;-85
2022/06/30 06:06:27;;;;;;;6.72;4.70;;;;;;;;;;5094196;28;20028;-88
2022/06/30 06:08:52;;;;;;;5.55;4.10;;;;;;;;;;5092732;28;20110;-86
2022/06/30 06:11:18;;;;;;;6.00;4.43;;;;;;;;;;5095200;28;20016;-84
2022/06/30 06:13:43;;;;;;;4.47;4.00;;;;;;;;;;5094187;28;20088;-86
2022/06/30 06:16:08;;;;;;;4.90;4.07;;;;;;;;;;5092836;28;20035;-86
2022/06/30 06:18:38;;;;;;;8.02;5.25;;;;;;;;;;5091713;28;20039;-87
2022/06/30 06:21:03;;;;;;;5.65;4.00;;;;;;;;;;5089992;28;20035;-89
2022/06/30 06:23:29;;;;;;;5.55;4.13;;;;;;;;;;5090670;28;20036;-85
2022/06/30 06:25:54;;;;;;;5.95;3.60;;;;;;;;;;5090430;28;20043;-83
2022/06/30 06:31:04;;;;;;;7.53;4.32;;;;;;;;;;5085775;28;20081;-83
2022/06/30 06:33:30;;;;;;;7.60;4.60;;;;;;;;;;5087594;28;20111;-87
2022/06/30 06:35:56;;;;;;;4.80;4.30;;;;;;;;;;5090599;28;20124;-88
2022/06/30 06:38:22;;;;;;;4.90;3.83;;;;;;;;;;5087750;28;20028;-83
2022/06/30 06:40:47;;;;;;;6.60;4.80;;;;;;;;;;5087869;28;20035;-84
2022/06/30 06:43:13;;;;;;;4.43;3.90;;;;;;;;;;5084009;28;20038;-84
2022/06/30 06:45:38;;;;;;;6.93;4.50;;;;;;;;;;5088396;28;20077;-83
2022/06/30 06:48:04;;;;;;;4.60;3.90;;;;;;;;;;5087209;28;20024;-83
2022/06/30 06:50:29;;;;;;;5.25;4.30;;;;;;;;;;5085729;28;20491;-82
2022/06/30 06:52:55;;;;;;;10.98;4.50;;;;;;;;;;5085949;28;20106;-82
2022/06/30 06:55:21;;;;;;;7.00;4.60;;;;;;;;;;5091223;28;20073;-84
2022/06/30 06:57:47;;;;;;;5.35;3.53;;;;;;;;;;5087212;28;20039;-86
2022/06/30 07:00:13;;;;;;;5.28;3.72;;;;;;;;;;5089943;28;20024;-87
2022/06/30 07:02:39;;;;;;;4.45;3.60;;;;;;;;;;5091107;28;20422;-86
2022/06/30 07:05:06;;;;;;;5.88;4.13;;;;;;;;;;5087654;28;20040;-85
2022/06/30 07:07:32;;;;;;;4.80;4.00;;;;;;;;;;5084581;28;20027;-83
2022/06/30 07:09:57;;;;;;;3.97;3.47;;;;;;;;;;5085189;28;20430;-81
2022/06/30 07:12:23;;;;;;;5.07;4.07;;;;;;;;;;5090772;28;20032;-82
2022/06/30 07:14:49;;;;;;;8.90;4.78;;;;;;;;;;5085397;28;20020;-83
2022/06/30 07:17:15;;;;;;;6.60;4.72;;;;;;;;;;5084814;28;20028;-86
2022/06/30 07:19:40;;;;;;;5.32;4.50;;;;;;;;;;5091644;28;20161;-81
2022/06/30 07:22:06;;;;;;;7.03;4.32;;;;;;;;;;5087043;28;20021;-82
2022/06/30 07:24:32;;;;;;;4.80;3.88;;;;;;;;;;5088922;28;20035;-85
2022/06/30 07:26:57;;;;;;;5.07;4.22;;;;;;;;;;5090164;28;20107;-83
2022/06/30 07:29:23;;;;;;;5.13;4.07;;;;;;;;;;5090427;28;20055;-83
2022/06/30 07:31:48;;;;;;;5.43;3.75;;;;;;;;;;5091304;28;20032;-83
2022/06/30 07:34:13;;;;;;;5.65;4.22;;;;;;;;;;5087077;28;20020;-83
2022/06/30 07:36:41;;;;;;;5.82;4.10;;;;;;;;;;5091464;28;20028;-84
2022/06/30 07:39:06;;;;;;;6.00;3.85;;;;;;;;;;5089468;28;20031;-83
2022/06/30 07:41:32;;;;;;;6.05;3.83;;;;;;;;;;5089544;28;20487;-86
2022/06/30 07:43:58;;;;;;;5.30;3.70;;;;;;;;;;5091401;28;20416;-83
2022/06/30 07:46:23;;;;;;;5.20;3.70;;;;;;;;;;5089416;28;20476;-84
2022/06/30 07:48:50;;;;;;;3.70;3.28;;;;;;;;;;5086735;28;20029;-82
2022/06/30 07:51:17;;;;;;;4.28;3.50;;;;;;;;;;5086785;28;20032;-84
2022/06/30 07:53:43;;;;;;;4.68;3.65;;;;;;;;;;5089874;28;20048;-82
2022/06/30 07:56:08;;;;;;;3.90;3.53;;;;;;;;;;5087301;28;20097;-84
2022/06/30 07:58:34;;;;;;;8.57;6.80;;;;;;;;;;5091978;28;20408;-84
2022/06/30 08:01:00;;;;;;;4.43;3.85;;;;;;;;;;5092282;28;20031;-85
2022/06/30 08:03:25;;;;;;;5.32;3.28;;;;;;;;;;5091590;28;20332;-82
2022/06/30 08:05:51;;;;;;;6.85;4.00;;;;;;;;;;5090978;28;20020;-84
2022/06/30 08:08:17;;;;;;;18.83;16.13;;;;;;;;;;5093906;28;20095;-85
2022/06/30 08:10:43;;;;;;;8.43;7.63;;;;;;;;;;5090383;28;20507;-85
2022/06/30 08:13:11;;;;;;;4.63;3.60;;;;;;;;;;5092201;28;20028;-82
2022/06/30 08:15:36;;;;;;;4.25;3.42;;;;;;;;;;5095214;28;20155;-83
2022/06/30 08:18:04;;;;;;;3.50;3.15;;;;;;;;;;5090612;28;20468;-85
2022/06/30 08:20:30;;;;;;;6.93;3.97;;;;;;;;;;5091300;28;20056;-83
2022/06/30 08:22:55;;;;;;;5.10;3.58;;;;;;;;;;5089092;28;20479;-84
2022/06/30 08:25:21;;;;;;;7.28;3.67;;;;;;;;;;5091722;28;20532;-86
2022/06/30 08:27:46;;;;;;;4.85;3.33;;;;;;;;;;5092369;28;20024;-84
2022/06/30 08:30:12;;;;;;;5.20;3.40;;;;;;;;;;5092059;28;20028;-85
2022/06/30 08:32:37;;;;;;;7.03;5.90;;;;;;;;;;5092383;28;20444;-83
2022/06/30 08:35:03;;;;;;;8.57;7.70;;;;;;;;;;5091494;28;20387;-85
2022/06/30 08:37:28;;;;;;;8.82;5.47;;;;;;;;;;5091506;28;20028;-87
2022/06/30 08:42:41;;;;;;;3.25;2.85;;;;;;;;;;5092854;28;20108;-84
2022/06/30 08:45:13;;;;;;;4.22;3.00;;;;;;;;;;5085693;28;20031;-82
2022/06/30 08:47:41;;;;;;;3.22;2.53;;;;;;;;;;5090448;28;20047;-82
2022/06/30 08:50:10;;;;;;;4.82;2.75;;;;;;;;;;5090690;28;20055;-83
2022/06/30 08:52:53;;;;;;;6.78;2.50;;;;;;;;;;5092813;28;20070;-84
2022/06/30 08:55:27;;;;;;;3.72;2.50;;;;;;;;;;5090783;28;20031;-84
2022/06/30 08:57:57;;;;;;;4.18;2.53;;;;;;;;;;5089901;28;20024;-83
2022/06/30 09:00:23;;;;;;;4.57;2.70;;;;;;;;;;5093931;28;20020;-84
2022/06/30 09:02:49;;;;;;;5.82;2.67;;;;;;;;;;5088470;28;20028;-84
2022/06/30 09:05:15;;;;;;;9.15;7.97;;;;;;;;;;5091140;28;20024;-81
2022/06/30 09:07:41;;;;;;;7.10;6.40;;;;;;;;;;5092408;28;20408;-83
2022/06/30 09:10:07;;;;;;;9.88;7.88;;;;;;;;;;5088762;28;20119;-83
2022/06/30 09:12:33;;;;;;;7.70;7.00;;;;;;;;;;5090037;28;20467;-87
2022/06/30 09:15:00;;;;;;;4.93;2.85;;;;;;;;;;5091424;28;20540;-82
2022/06/30 09:17:27;;;;;;;3.53;2.50;;;;;;;;;;5091228;28;20100;-83
2022/06/30 09:19:59;;;;;;;2.80;2.58;;;;;;;;;;5089422;28;20035;-83
2022/06/30 09:22:30;;;;;;;4.63;2.50;;;;;;;;;;5091660;28;20356;-85
2022/06/30 09:24:58;;;;;;;3.70;2.30;;;;;;;;;;5091377;28;20114;-84
2022/06/30 09:27:35;;;;;;;5.20;2.42;;;;;;;;;;5090900;28;20027;-85
2022/06/30 09:30:09;;;;;;;3.95;2.25;;;;;;;;;;5088617;28;20024;-84
2022/06/30 09:32:46;;;;;;;3.70;1.90;;;;;;;;;;5091623;28;20038;-87
2022/06/30 09:35:12;;;;;;;5.05;2.13;;;;;;;;;;5087245;28;20024;-85
2022/06/30 09:37:38;;;;;;;2.47;2.13;;;;;;;;;;5090246;28;20361;-85
2022/06/30 09:40:05;;;;;;;4.25;2.28;;;;;;;;;;5090893;28;20019;-83
2022/06/30 09:42:40;;;;;;;3.38;2.30;;;;;;;;;;5089507;28;20119;-86
2022/06/30 09:45:08;;;;;;;5.30;2.38;;;;;;;;;;5084351;28;20077;-81
2022/06/30 09:47:34;;;;;;;3.08;2.20;;;;;;;;;;5087278;28;20479;-85
2022/06/30 09:50:06;;;;;;;3.75;2.35;;;;;;;;;;5087782;28;20028;-85
2022/06/30 09:52:32;;;;;;;3.40;2.53;;;;;;;;;;5086191;28;20038;-85
2022/06/30 09:55:07;;;;;;;4.95;2.72;;;;;;;;;;5085682;28;20047;-85
2022/06/30 09:57:38;;;;;;;4.72;2.92;;;;;;;;;;5090326;28;20028;-84
2022/06/30 10:00:15;;;;;;;3.78;3.38;;;;;;;;;;5089777;28;20452;-83
2022/06/30 10:02:46;;;;;;;4.45;4.00;;;;;;;;;;5088417;28;20034;-83
2022/06/30 10:05:14;;;;;;;4.72;4.20;;;;;;;;;;5086680;28;20077;-82
2022/06/30 10:07:40;;;;;;;3.90;2.30;;;;;;;;;;5088750;28;20027;-83
2022/06/30 10:10:09;;;;;;;3.42;2.33;;;;;;;;;;5089602;28;20050;-83
2022/06/30 10:12:36;;;;;;;2.75;1.83;;;;;;;;;;5091969;28;20463;-80
2022/06/30 10:15:03;;;;;;;2.83;2.00;;;;;;;;;;5088179;28;20579;-84
2022/06/30 10:17:34;;;;;;;3.67;2.05;;;;;;;;;;5089472;28;20036;-81
2022/06/30 10:20:00;;;;;;;3.60;2.05;;;;;;;;;;5090547;28;20438;-81
2022/06/30 10:22:27;;;;;;;2.78;1.98;;;;;;;;;;5089757;28;20047;-85
2022/06/30 10:24:55;;;;;;;7.15;2.22;;;;;;;;;;5090435;28;20106;-81
2022/06/30 10:27:22;;;;;;;4.72;2.15;;;;;;;;;;5090863;28;20371;-84
2022/06/30 10:30:00;;;;;;;4.05;1.88;;;;;;;;;;5089609;28;20023;-83
2022/06/30 10:32:40;;;;;;;3.08;1.85;;;;;;;;;;5090820;28;20443;-83
2022/06/30 10:35:18;;;;;;;3.50;2.22;;;;;;;;;;5091195;28;20135;-83
2022/06/30 10:38:28;;;;;;;1.67;1.53;;;;;;;;;;5089684;28;20429;-84
2022/06/30 10:41:17;;;;;;;2.33;1.70;;;;;;;;;;5091379;28;20256;-84
2022/06/30 10:44:04;;;;;;;3.28;1.80;;;;;;;;;;5087205;28;20024;-84
2022/06/30 10:46:35;;;;;;;7.15;6.43;;;;;;;;;;5085584;28;20077;-84
2022/06/30 10:49:07;;;;;;;32.13;26.50;;;;;;;;;;5086964;28;20634;-86
2022/06/30 10:51:33;;;;;;;114.55;91.53;;;;;;;;;;5087431;28;20073;-84
2022/06/30 10:54:06;;;;;;;83.07;66.78;;;;;;;;;;5086060;28;20116;-84
2022/06/30 10:56:50;;;;;;;36.78;31.08;;;;;;;;;;5088196;28;20028;-85
2022/06/30 10:59:16;;;;;;;131.05;96.90;;;;;;;;;;5087188;28;20039;-85
2022/06/30 11:02:07;;;;;;;5.93;4.47;;;;;;;;;;5085366;28;20031;-85
2022/06/30 11:04:37;;;;;;;3.75;3.10;;;;;;;;;;5088766;28;20023;-87
2022/06/30 11:07:12;;;;;;;3.20;2.35;;;;;;;;;;5089629;28;20028;-85
2022/06/30 11:09:44;;;;;;;3.58;2.60;;;;;;;;;;5090700;28;20774;-85
2022/06/30 11:12:42;;;;;;;3.72;2.20;;;;;;;;;;5089949;28;20020;-84
2022/06/30 11:15:10;;;;;;;4.90;1.75;;;;;;;;;;5076318;28;20511;-84
2022/06/30 11:17:39;;;;;;;5.75;1.90;;;;;;;;;;5085399;28;20031;-83
2022/06/30 11:20:06;;;;;;;;;;;;;;;;;;5089435;28;20105;-83
2022/06/30 11:22:39;;;;;;;5.80;4.90;;;;;;;;;;5087935;28;20318;-83
2022/06/30 11:25:06;;;;;;;5.45;4.75;;;;;;;;;;5087222;28;20088;-86
2022/06/30 11:27:33;;;;;;;3.15;2.33;;;;;;;;;;5087392;28;20040;-86
2022/06/30 11:30:03;;;;;;;3.05;1.70;;;;;;;;;;5088478;28;20028;-85
2022/06/30 11:32:28;;;;;;;3.75;2.03;;;;;;;;;;5086770;28;20395;-85
2022/06/30 11:34:54;;;;;;;3.25;2.13;;;;;;;;;;5094690;28;20020;-84
2022/06/30 11:37:22;;;;;;;1.90;1.70;;;;;;;;;;5092734;28;20069;-85
2022/06/30 11:39:59;;;;;;;2.42;1.90;;;;;;;;;;5094308;28;20486;-84
2022/06/30 11:42:25;;;;;;;3.42;1.83;;;;;;;;;;5087203;28;20024;-84
2022/06/30 11:44:51;;;;;;;1.80;1.60;;;;;;;;;;5088704;28;20124;-84
2022/06/30 11:47:17;;;;;;;2.38;1.70;;;;;;;;;;5088208;28;20349;-85
2022/06/30 11:49:46;;;;;;;2.97;1.70;;;;;;;;;;5087359;28;20104;-85
2022/06/30 11:52:11;;;;;;;4.63;2.58;;;;;;;;;;5091807;28;20040;-86
2022/06/30 11:54:37;;;;;;;3.22;2.28;;;;;;;;;;5092094;28;20056;-85
2022/06/30 11:57:03;;;;;;;4.65;2.95;;;;;;;;;;5092863;28;20070;-85
2022/06/30 11:59:29;;;;;;;27.08;24.70;;;;;;;;;;5093009;28;20020;-85
2022/06/30 12:02:01;;;;;;;7.35;6.65;;;;;;;;;;5093263;28;20114;-84
2022/06/30 12:04:27;;;;;;;5.63;3.78;;;;;;;;;;5093140;28;20027;-84
2022/06/30 12:06:53;;;;;;;2.45;1.90;;;;;;;;;;5091616;28;20019;-87
2022/06/30 12:09:18;;;;;;;3.20;1.63;;;;;;;;;;5093846;28;20077;-83
2022/06/30 12:11:46;;;;;;;1.85;1.50;;;;;;;;;;5091908;28;20032;-83
2022/06/30 12:14:11;;;;;;;2.88;1.88;;;;;;;;;;5093793;28;20095;-86
2022/06/30 12:16:37;;;;;;;3.47;1.70;;;;;;;;;;5094026;28;20107;-84
2022/06/30 12:19:03;;;;;;;2.53;1.60;;;;;;;;;;5092740;28;20049;-85
2022/06/30 12:21:29;;;;;;;3.33;1.65;;;;;;;;;;5092998;28;20051;-85
2022/06/30 12:23:55;;;;;;;2.67;2.45;;;;;;;;;;5091039;28;20471;-84
2022/06/30 12:26:20;;;;;;;3.05;1.63;;;;;;;;;;5090004;28;20051;-83
2022/06/30 12:28:48;;;;;;;5.22;2.00;;;;;;;;;;5085306;28;20103;-83
2022/06/30 12:31:27;;;;;;;2.70;2.40;;;;;;;;;;5090956;28;20031;-83
2022/06/30 12:33:54;;;;;;;1.67;1.58;;;;;;;;;;5090395;28;20510;-85
2022/06/30 12:36:21;;;;;;;5.77;5.27;;;;;;;;;;5093369;28;20464;-83
2022/06/30 12:38:46;;;;;;;10.95;10.10;;;;;;;;;;5089880;28;20024;-83
2022/06/30 12:41:12;;;;;;;4.05;2.50;;;;;;;;;;5090933;28;20034;-84
2022/06/30 12:43:47;;;;;;;3.05;1.50;;;;;;;;;;5086560;28;20050;-83
2022/06/30 12:46:13;;;;;;;3.22;1.40;;;;;;;;;;5088159;28;20039;-82
2022/06/30 12:48:55;;;;;;;3.08;1.52;;;;;;;;;;5084459;28;20025;-84
2022/06/30 12:51:30;;;;;;;1.85;1.35;;;;;;;;;;5090083;28;20024;-85
2022/06/30 12:53:59;;;;;;;2.08;1.60;;;;;;;;;;5087167;28;20040;-85
2022/06/30 12:56:26;;;;;;;1.58;1.30;;;;;;;;;;5093379;28;20106;-82
2022/06/30 12:59:03;;;;;;;3.38;1.30;;;;;;;;;;5094034;28;20055;-84
2022/06/30 13:01:34;;;;;;;1.50;1.10;;;;;;;;;;5084234;28;20024;-84
2022/06/30 13:04:06;;;;;;;2.50;1.17;;;;;;;;;;5086455;28;20043;-83
2022/06/30 13:06:36;;;;;;;1.65;1.40;;;;;;;;;;5090613;28;20044;-85
2022/06/30 13:09:07;;;;;;;2.00;1.35;;;;;;;;;;5085874;28;20034;-83
2022/06/30 13:11:38;;;;;;;1.13;1.02;;;;;;;;;;5086968;28;20375;-84
2022/06/30 13:14:04;;;;;;;2.08;1.23;;;;;;;;;;5090398;28;20023;-85
2022/06/30 13:16:31;;;;;;;3.35;1.38;;;;;;;;;;5090125;28;20055;-83
2022/06/30 13:18:59;;;;;;;1.23;1.00;;;;;;;;;;5086409;28;20055;-86
2022/06/30 13:21:25;;;;;;;1.20;1.10;;;;;;;;;;5089864;28;20043;-84
2022/06/30 13:23:51;;;;;;;1.45;1.20;;;;;;;;;;5087781;28;20020;-83
2022/06/30 13:26:17;;;;;;;2.78;1.27;;;;;;;;;;5085463;28;20086;-83
2022/06/30 13:28:43;;;;;;;2.83;1.20;;;;;;;;;;5085755;28;20103;-83
2022/06/30 13:31:09;;;;;;;1.95;1.23;;;;;;;;;;5091099;28;20451;-85
2022/06/30 13:33:47;;;;;;;2.50;1.17;;;;;;;;;;5090367;28;20042;-88
2022/06/30 13:36:13;;;;;;;2.42;1.00;;;;;;;;;;5090069;28;20035;-84
2022/06/30 13:38:40;;;;;;;1.38;1.20;;;;;;;;;;5086751;28;20020;-85
2022/06/30 13:41:05;;;;;;;1.60;1.10;;;;;;;;;;5088140;28;20024;-86
2022/06/30 13:43:31;;;;;;;1.58;1.30;;;;;;;;;;5091081;28;20035;-85
2022/06/30 13:45:57;;;;;;;2.15;1.05;;;;;;;;;;5087830;28;20488;-84
2022/06/30 13:48:22;;;;;;;1.25;0.90;;;;;;;;;;5090684;28;20028;-84
2022/06/30 13:50:48;;;;;;;2.65;1.00;;;;;;;;;;5087215;28;20020;-84
2022/06/30 13:53:14;;;;;;;2.38;1.20;;;;;;;;;;5092488;28;20039;-84
2022/06/30 13:55:40;;;;;;;2.72;1.20;;;;;;;;;;5090826;28;20330;-84
2022/06/30 13:58:06;;;;;;;3.88;1.30;;;;;;;;;;5092499;28;20028;-85
2022/06/30 14:00:32;;;;;;;6.50;1.65;;;;;;;;;;5089461;28;20036;-85
2022/06/30 14:02:57;;;;;;;2.25;1.10;;;;;;;;;;5090607;28;20378;-84
2022/06/30 14:05:23;;;;;;;2.15;1.27;;;;;;;;;;5086200;28;20056;-82
2022/06/30 14:07:48;;;;;;;4.50;4.18;;;;;;;;;;5084326;28;20025;-84
2022/06/30 14:10:15;;;;;;;3.13;2.55;;;;;;;;;;5087555;28;20035;-82
2022/06/30 14:12:41;;;;;;;4.78;2.45;;;;;;;;;;5087599;28;20078;-85
2022/06/30 14:15:09;;;;;;;2.42;1.73;;;;;;;;;;5087957;28;20399;-82
2022/06/30 14:17:39;;;;;;;2.13;1.00;;;;;;;;;;5089790;28;20031;-82
2022/06/30 14:20:06;;;;;;;3.15;1.20;;;;;;;;;;5085068;28;20066;-83
2022/06/30 14:22:34;;;;;;;1.77;1.20;;;;;;;;;;5089540;28;20028;-82
2022/06/30 14:25:00;;;;;;;3.88;1.40;;;;;;;;;;5089801;28;20028;-83
2022/06/30 14:27:26;;;;;;;4.05;2.10;;;;;;;;;;5088673;28;20052;-83
2022/06/30 14:29:51;;;;;;;2.17;1.27;;;;;;;;;;5087411;28;20495;-82
2022/06/30 14:32:17;;;;;;;2.13;1.20;;;;;;;;;;5088503;28;20031;-81
2022/06/30 14:34:42;;;;;;;3.28;1.35;;;;;;;;;;5084987;28;20024;-84
2022/06/30 14:37:08;;;;;;;5.65;2.15;;;;;;;;;;5085180;28;20095;-84
2022/06/30 14:39:34;;;;;;;2.25;1.30;;;;;;;;;;5083968;28;20441;-84
2022/06/30 14:44:43;;;;;;;1.23;1.10;;;;;;;;;;5087132;28;20058;-84
2022/06/30 14:47:09;;;;;;;1.17;1.00;;;;;;;;;;5090275;28;20413;-82
2022/06/30 14:49:34;;;;;;;1.23;1.05;;;;;;;;;;5089053;28;20024;-83
2022/06/30 14:52:00;;;;;;;2.25;1.17;;;;;;;;;;5087250;28;20161;-85
2022/06/30 14:54:25;;;;;;;1.70;1.20;;;;;;;;;;5090943;28;20055;-84
2022/06/30 14:56:51;;;;;;;16.80;15.60;;;;;;;;;;5091069;28;20024;-83
2022/06/30 14:59:16;;;;;;;9.40;8.70;;;;;;;;;;5089907;28;20084;-84
2022/06/30 15:01:42;;;;;;;3.95;1.52;;;;;;;;;;5091132;28;20098;-83
2022/06/30 15:04:07;;;;;;;6.25;1.55;;;;;;;;;;5087241;28;20727;-83